Time,TemperatureF,DewpointF,PressureIn,WindDirection,WindDirectionDegrees,WindSpeedMPH,WindSpeedGustMPH,Humidity,HourlyPrecipIn,Conditions,Clouds,dailyrainin,SoftwareType,DateUTC
2013-02-02 00:03:00,19.0,5.0,-100.00,WNW,302,7.0,11.0,53,0.00,,,-99.99,,2013-02-02 05:03:00,
2013-02-02 00:12:00,19.0,3.0,-100.00,WNW,298,7.0,11.0,50,0.00,,,-99.99,,2013-02-02 05:12:00,
2013-02-02 00:22:00,19.0,4.0,-100.00,WNW,299,7.0,14.0,50,0.00,,,-99.99,,2013-02-02 05:22:00,
2013-02-02 00:33:00,19.0,6.0,-100.00,WNW,298,7.0,12.0,56,0.00,,,-99.99,,2013-02-02 05:33:00,
2013-02-02 00:41:00,19.0,4.0,-100.00,NW,304,7.0,12.0,51,0.00,,,-99.99,,2013-02-02 05:41:00,
2013-02-02 00:52:00,19.0,5.0,-100.00,NW,305,7.0,12.0,54,0.00,,,-99.99,,2013-02-02 05:52:00,
2013-02-02 01:02:00,19.0,4.0,-100.00,WNW,298,6.0,10.0,51,0.00,,,-99.99,,2013-02-02 06:02:00,
2013-02-02 01:12:00,19.0,5.0,-100.00,WNW,302,4.0,7.0,53,0.00,,,-99.99,,2013-02-02 06:12:00,
2013-02-02 01:22:00,19.0,6.0,-100.00,WNW,295,6.0,9.0,55,0.00,,,-99.99,,2013-02-02 06:22:00,
2013-02-02 01:32:00,-999.0,-99.9,-100.00,WNW,294,7.0,11.0,-999,-99.99,,,-99.99,,2013-02-02 06:32:00,
2013-02-02 01:42:00,19.0,6.0,-100.00,WNW,291,6.0,11.0,57,0.00,,,-99.99,,2013-02-02 06:42:00,
2013-02-02 01:51:00,19.0,7.0,-100.00,WNW,287,4.0,10.0,58,0.00,,,-99.99,,2013-02-02 06:51:00,
2013-02-02 02:02:00,18.0,6.0,-100.00,SW,234,3.0,9.0,57,0.00,,,-99.99,,2013-02-02 07:02:00,
2013-02-02 02:12:00,18.0,7.0,-100.00,WSW,250,4.0,12.0,59,0.00,,,-99.99,,2013-02-02 07:12:00,
2013-02-02 02:21:00,18.0,7.0,-100.00,WSW,258,4.0,9.0,60,0.00,,,-99.99,,2013-02-02 07:21:00,
2013-02-02 02:32:00,18.0,8.0,-100.00,WSW,254,6.0,11.0,62,0.00,,,-99.99,,2013-02-02 07:32:00,
2013-02-02 02:42:00,18.0,8.0,-100.00,WSW,253,6.0,11.0,62,0.00,,,-99.99,,2013-02-02 07:42:00,
2013-02-02 02:51:00,18.0,8.0,-100.00,West,263,4.0,11.0,64,0.00,,,-99.99,,2013-02-02 07:51:00,
2013-02-02 03:01:00,19.0,8.0,-100.00,West,270,6.0,11.0,63,0.00,,,-99.99,,2013-02-02 08:01:00,
2013-02-02 03:11:00,19.0,8.0,-100.00,West,267,6.0,12.0,63,0.00,,,-99.99,,2013-02-02 08:11:00,
2013-02-02 03:21:00,19.0,9.0,-100.00,West,268,6.0,12.0,64,0.00,,,-99.99,,2013-02-02 08:21:00,
2013-02-02 03:32:00,-999.0,-99.9,-100.00,West,274,6.0,12.0,-999,-99.99,,,-99.99,,2013-02-02 08:32:00,
2013-02-02 03:41:00,18.0,7.0,-100.00,West,265,6.0,12.0,61,0.00,,,-99.99,,2013-02-02 08:41:00,
2013-02-02 03:52:00,18.0,7.0,-100.00,West,265,4.0,10.0,61,0.00,,,-99.99,,2013-02-02 08:52:00,
2013-02-02 04:01:00,18.0,6.0,-100.00,WSW,243,4.0,7.0,61,0.00,,,-99.99,,2013-02-02 09:01:00,
2013-02-02 04:11:00,17.0,7.0,-100.00,SW,233,4.0,7.0,62,0.00,,,-99.99,,2013-02-02 09:11:00,
2013-02-02 04:22:00,17.0,6.0,-100.00,SW,234,6.0,10.0,61,0.00,,,-99.99,,2013-02-02 09:22:00,
2013-02-02 04:32:00,17.0,6.0,-100.00,WSW,244,5.0,8.0,62,0.00,,,-99.99,,2013-02-02 09:32:00,
2013-02-02 04:42:00,18.0,8.0,-100.00,WSW,253,5.0,9.0,64,0.00,,,-99.99,,2013-02-02 09:42:00,
2013-02-02 04:52:00,18.0,7.0,-100.00,West,280,4.0,9.0,62,0.00,,,-99.99,,2013-02-02 09:52:00,
2013-02-02 05:02:00,18.0,8.0,-100.00,West,278,4.0,11.0,63,0.00,,,-99.99,,2013-02-02 10:02:00,
2013-02-02 05:11:00,18.0,7.0,-100.00,West,278,4.0,9.0,63,0.00,,,-99.99,,2013-02-02 10:11:00,
2013-02-02 05:21:00,18.0,8.0,-100.00,West,271,6.0,10.0,65,0.00,,,-99.99,,2013-02-02 10:21:00,
2013-02-02 05:32:00,18.0,8.0,-100.00,WNW,284,6.0,12.0,65,0.00,,,-99.99,,2013-02-02 10:32:00,
2013-02-02 05:42:00,17.0,8.0,-100.00,WNW,296,9.0,12.0,65,0.00,,,-99.99,,2013-02-02 10:42:00,
2013-02-02 05:52:00,17.0,6.0,-100.00,NW,306,9.0,13.0,61,0.00,,,-99.99,,2013-02-02 10:52:00,
2013-02-02 06:02:00,17.0,7.0,-100.00,NW,305,7.0,11.0,65,0.00,,,-99.99,,2013-02-02 11:02:00,
2013-02-02 06:11:00,-999.0,-99.9,-100.00,NW,305,7.0,11.0,-999,-99.99,,,-99.99,,2013-02-02 11:11:00,
2013-02-02 06:21:00,17.0,6.0,-100.00,NW,309,7.0,11.0,62,0.00,,,-99.99,,2013-02-02 11:21:00,
2013-02-02 06:32:00,16.0,5.0,-100.00,NW,311,7.0,11.0,61,0.00,,,-99.99,,2013-02-02 11:32:00,
2013-02-02 06:42:00,17.0,6.0,-100.00,WNW,292,4.0,9.0,62,0.00,,,-99.99,,2013-02-02 11:42:00,
2013-02-02 06:52:00,17.0,7.0,-100.00,WNW,284,5.0,9.0,65,0.00,,,-99.99,,2013-02-02 11:52:00,
2013-02-02 07:02:00,17.0,6.0,-100.00,West,281,6.0,10.0,64,0.00,,,-99.99,,2013-02-02 12:02:00,
2013-02-02 07:11:00,16.0,5.0,-100.00,WNW,285,6.0,10.0,62,0.00,,,-99.99,,2013-02-02 12:11:00,
2013-02-02 07:22:00,16.0,6.0,-100.00,WNW,292,5.0,12.0,64,0.00,,,-99.99,,2013-02-02 12:22:00,
2013-02-02 07:32:00,-999.0,-99.9,-100.00,WNW,292,6.0,12.0,-999,-99.99,,,-99.99,,2013-02-02 12:32:00,
2013-02-02 07:42:00,16.0,5.0,-100.00,WNW,298,6.0,12.0,61,0.00,,,-99.99,,2013-02-02 12:42:00,
2013-02-02 07:52:00,16.0,6.0,-100.00,West,277,4.0,9.0,62,0.00,,,-99.99,,2013-02-02 12:52:00,
2013-02-02 08:03:00,16.0,5.0,-100.00,WSW,243,4.0,7.0,61,0.00,,,-99.99,,2013-02-02 13:03:00,
2013-02-02 08:11:00,16.0,6.0,-100.00,WSW,251,4.0,9.0,63,0.00,,,-99.99,,2013-02-02 13:11:00,
2013-02-02 08:21:00,17.0,6.0,-100.00,West,264,4.0,7.0,63,0.00,,,-99.99,,2013-02-02 13:21:00,
2013-02-02 08:32:00,17.0,6.0,-100.00,WNW,282,4.0,6.0,63,0.00,,,-99.99,,2013-02-02 13:32:00,
2013-02-02 08:42:00,17.0,6.0,-100.00,WNW,299,5.0,10.0,61,0.00,,,-99.99,,2013-02-02 13:42:00,
2013-02-02 08:52:00,-999.0,-99.9,-100.00,WNW,292,5.0,11.0,-999,-99.99,,,-99.99,,2013-02-02 13:52:00,
2013-02-02 09:03:00,18.0,6.0,-100.00,West,281,4.0,10.0,61,0.00,,,-99.99,,2013-02-02 14:03:00,
2013-02-02 09:11:00,18.0,6.0,-100.00,West,272,4.0,9.0,60,0.00,,,-99.99,,2013-02-02 14:11:00,
2013-02-02 09:22:00,18.0,6.0,-100.00,West,261,6.0,13.0,58,0.00,,,-99.99,,2013-02-02 14:22:00,
2013-02-02 09:33:00,-999.0,-99.9,-100.00,West,271,4.0,8.0,-999,-99.99,,,-99.99,,2013-02-02 14:33:00,
2013-02-02 09:42:00,19.0,6.0,-100.00,West,274,4.0,8.0,57,0.00,,,-99.99,,2013-02-02 14:42:00,
2013-02-02 09:52:00,20.0,6.0,-100.00,West,274,4.0,10.0,55,0.00,,,-99.99,,2013-02-02 14:52:00,
2013-02-02 10:03:00,20.0,8.0,-100.00,West,272,4.0,9.0,58,0.00,,,-99.99,,2013-02-02 15:03:00,
2013-02-02 10:12:00,20.0,6.0,-100.00,West,275,4.0,9.0,54,0.00,,,-99.99,,2013-02-02 15:12:00,
2013-02-02 10:22:00,20.0,6.0,-100.00,West,278,4.0,9.0,53,0.00,,,-99.99,,2013-02-02 15:22:00,
2013-02-02 10:33:00,-999.0,6.0,-100.00,West,281,4.0,8.0,52,-99.99,,,-99.99,,2013-02-02 15:33:00,
2013-02-02 10:42:00,22.0,5.0,-100.00,WSW,257,3.0,8.0,46,0.00,,,-99.99,,2013-02-02 15:42:00,
2013-02-02 10:52:00,22.0,5.0,-100.00,West,280,2.0,7.0,48,0.00,,,-99.99,,2013-02-02 15:52:00,
2013-02-02 11:03:00,22.0,6.0,-100.00,WNW,289,3.0,9.0,49,0.00,,,-99.99,,2013-02-02 16:03:00,
2013-02-02 11:11:00,24.0,6.0,-100.00,WSW,256,3.0,9.0,45,0.00,,,-99.99,,2013-02-02 16:11:00,
2013-02-02 11:22:00,23.0,4.0,-100.00,WNW,285,3.0,9.0,44,0.00,,,-99.99,,2013-02-02 16:22:00,
2013-02-02 11:32:00,24.0,4.0,-100.00,WNW,284,3.0,6.0,43,0.00,,,-99.99,,2013-02-02 16:32:00,
2013-02-02 11:42:00,24.0,4.0,-100.00,West,278,2.0,5.0,41,0.00,,,-99.99,,2013-02-02 16:42:00,
2013-02-02 11:52:00,25.0,4.0,-100.00,WSW,239,3.0,7.0,39,0.00,,,-99.99,,2013-02-02 16:52:00,
2013-02-02 12:03:00,26.0,4.0,-100.00,SW,233,4.0,11.0,39,0.00,,,-99.99,,2013-02-02 17:03:00,
2013-02-02 12:11:00,26.0,4.0,-100.00,SSW,200,4.0,11.0,39,0.00,,,-99.99,,2013-02-02 17:11:00,
2013-02-02 12:22:00,26.0,2.0,-100.00,WSW,248,4.0,9.0,35,0.00,,,-99.99,,2013-02-02 17:22:00,
2013-02-02 12:32:00,26.0,1.0,-100.00,WSW,239,4.0,9.0,34,0.00,,,-99.99,,2013-02-02 17:32:00,
2013-02-02 12:42:00,26.0,3.0,-100.00,WSW,246,5.0,11.0,36,0.00,,,-99.99,,2013-02-02 17:42:00,
2013-02-02 12:52:00,26.0,0.0,-100.00,SW,216,4.0,12.0,32,0.00,,,-99.99,,2013-02-02 17:52:00,
2013-02-02 13:03:00,26.0,1.0,-100.00,SW,227,4.0,11.0,33,0.00,,,-99.99,,2013-02-02 18:03:00,
2013-02-02 13:12:00,-999.0,-99.9,-100.00,SW,216,4.0,8.0,-999,-99.99,,,-99.99,,2013-02-02 18:12:00,
2013-02-02 13:22:00,26.0,0.0,-100.00,SW,229,3.0,7.0,32,0.00,,,-99.99,,2013-02-02 18:22:00,
2013-02-02 13:32:00,27.0,1.0,-100.00,SSW,195,2.0,6.0,33,0.00,,,-99.99,,2013-02-02 18:32:00,
2013-02-02 13:42:00,27.0,1.0,-100.00,WSW,239,4.0,11.0,33,0.00,,,-99.99,,2013-02-02 18:42:00,
2013-02-02 13:52:00,27.0,1.0,-100.00,SW,222,5.0,9.0,32,0.00,,,-99.99,,2013-02-02 18:52:00,
2013-02-02 14:02:00,27.0,1.0,-100.00,SW,233,3.0,8.0,32,0.00,,,-99.99,,2013-02-02 19:02:00,
2013-02-02 14:12:00,-999.0,-99.9,-100.00,SSW,213,4.0,11.0,-999,-99.99,,,-99.99,,2013-02-02 19:12:00,
2013-02-02 14:21:00,28.0,2.0,-100.00,SSW,195,4.0,8.0,31,0.00,,,-99.99,,2013-02-02 19:21:00,
2013-02-02 14:32:00,28.0,1.0,-100.00,SW,223,6.0,14.0,31,0.00,,,-99.99,,2013-02-02 19:32:00,
2013-02-02 14:42:00,29.0,4.0,-100.00,SW,222,2.0,9.0,34,0.00,,,-99.99,,2013-02-02 19:42:00,
2013-02-02 14:51:00,28.0,2.0,-100.00,WSW,241,4.0,12.0,32,0.00,,,-99.99,,2013-02-02 19:51:00,
2013-02-02 15:01:00,28.0,2.0,-100.00,SSW,202,6.0,13.0,32,0.00,,,-99.99,,2013-02-02 20:01:00,
2013-02-02 15:11:00,28.0,1.0,-100.00,South,188,4.0,9.0,31,0.00,,,-99.99,,2013-02-02 20:11:00,
2013-02-02 15:21:00,28.0,2.0,-100.00,South,186,5.0,11.0,32,0.00,,,-99.99,,2013-02-02 20:21:00,
2013-02-02 15:32:00,28.0,2.0,-100.00,South,182,4.0,7.0,33,0.00,,,-99.99,,2013-02-02 20:32:00,
2013-02-02 15:42:00,28.0,2.0,-100.00,South,174,3.0,7.0,33,0.00,,,-99.99,,2013-02-02 20:42:00,
2013-02-02 15:52:00,28.0,2.0,-100.00,South,175,3.0,7.0,32,0.00,,,-99.99,,2013-02-02 20:52:00,
2013-02-02 16:02:00,28.0,3.0,-100.00,SSW,192,4.0,10.0,33,0.00,,,-99.99,,2013-02-02 21:02:00,
2013-02-02 16:11:00,27.0,2.0,-100.00,SSW,192,5.0,10.0,33,0.00,,,-99.99,,2013-02-02 21:11:00,
2013-02-02 16:21:00,27.0,2.0,-100.00,South,185,4.0,7.0,33,0.00,,,-99.99,,2013-02-02 21:21:00,
2013-02-02 16:32:00,27.0,3.0,-100.00,South,189,6.0,11.0,34,0.00,,,-99.99,,2013-02-02 21:32:00,
2013-02-02 16:42:00,27.0,3.0,-100.00,South,181,3.0,8.0,35,0.00,,,-99.99,,2013-02-02 21:42:00,
2013-02-02 16:52:00,27.0,3.0,-100.00,South,182,6.0,12.0,34,0.00,,,-99.99,,2013-02-02 21:52:00,
2013-02-02 17:03:00,27.0,3.0,-100.00,South,179,4.0,9.0,35,0.00,,,-99.99,,2013-02-02 22:03:00,
2013-02-02 17:12:00,-999.0,-99.9,-100.00,SSE,168,2.0,5.0,-999,-99.99,,,-99.99,,2013-02-02 22:12:00,
2013-02-02 17:21:00,27.0,4.0,-100.00,South,169,2.0,5.0,36,0.00,,,-99.99,,2013-02-02 22:21:00,
2013-02-02 17:32:00,27.0,4.0,-100.00,SSE,161,3.0,6.0,36,0.00,,,-99.99,,2013-02-02 22:32:00,
2013-02-02 17:42:00,27.0,4.0,-100.00,SSE,160,2.0,5.0,36,0.00,,,-99.99,,2013-02-02 22:42:00,
2013-02-02 17:52:00,27.0,4.0,-100.00,SSE,150,2.0,4.0,38,0.00,,,-99.99,,2013-02-02 22:52:00,
2013-02-02 18:02:00,27.0,5.0,-100.00,SE,144,1.0,4.0,38,0.00,,,-99.99,,2013-02-02 23:02:00,
2013-02-02 18:11:00,27.0,4.0,-100.00,SE,126,1.0,3.0,38,0.00,,,-99.99,,2013-02-02 23:11:00,
2013-02-02 18:21:00,27.0,5.0,-100.00,SE,127,1.0,4.0,39,0.00,,,-99.99,,2013-02-02 23:21:00,
2013-02-02 18:32:00,27.0,6.0,-100.00,SE,127,1.0,4.0,40,0.00,,,-99.99,,2013-02-02 23:32:00,
2013-02-02 18:42:00,27.0,6.0,-100.00,SE,126,1.0,3.0,40,0.00,,,-99.99,,2013-02-02 23:42:00,
2013-02-02 18:52:00,27.0,5.0,-100.00,SE,127,1.0,4.0,39,0.00,,,-99.99,,2013-02-02 23:52:00,
2013-02-02 19:02:00,27.0,6.0,-100.00,ESE,123,1.0,3.0,40,0.00,,,-99.99,,2013-02-03 00:02:00,
2013-02-02 19:11:00,27.0,6.0,-100.00,ESE,119,1.0,3.0,41,0.00,,,-99.99,,2013-02-03 00:11:00,
2013-02-02 19:22:00,27.0,6.0,-100.00,ESE,121,1.0,3.0,41,0.00,,,-99.99,,2013-02-03 00:22:00,
2013-02-02 19:32:00,27.0,6.0,-100.00,SE,127,1.0,3.0,42,0.00,,,-99.99,,2013-02-03 00:32:00,
2013-02-02 19:42:00,27.0,7.0,-100.00,SE,133,2.0,4.0,42,0.00,,,-99.99,,2013-02-03 00:42:00,
2013-02-02 19:51:00,27.0,7.0,-100.00,SE,133,2.0,4.0,42,0.00,,,-99.99,,2013-02-03 00:51:00,
2013-02-02 20:02:00,27.0,7.0,-100.00,SE,144,2.0,3.0,42,0.00,,,-99.99,,2013-02-03 01:02:00,
2013-02-02 20:11:00,27.0,7.0,-100.00,SE,143,1.0,4.0,43,0.00,,,-99.99,,2013-02-03 01:11:00,
2013-02-02 20:21:00,27.0,8.0,-100.00,SSE,152,3.0,6.0,43,0.00,,,-99.99,,2013-02-03 01:21:00,
2013-02-02 20:32:00,27.0,7.0,-100.00,SSE,161,3.0,7.0,42,0.00,,,-99.99,,2013-02-03 01:32:00,
2013-02-02 20:42:00,27.0,7.0,-100.00,SSE,158,3.0,7.0,42,0.00,,,-99.99,,2013-02-03 01:42:00,
2013-02-02 20:52:00,27.0,7.0,-100.00,SSE,161,2.0,4.0,42,0.00,,,-99.99,,2013-02-03 01:52:00,
2013-02-02 21:01:00,27.0,7.0,-100.00,South,172,2.0,6.0,42,0.00,,,-99.99,,2013-02-03 02:01:00,
2013-02-02 21:11:00,27.0,8.0,-100.00,SSE,150,2.0,4.0,43,0.00,,,-99.99,,2013-02-03 02:11:00,
2013-02-02 21:21:00,27.0,7.0,-100.00,SSE,154,2.0,7.0,42,0.00,,,-99.99,,2013-02-03 02:21:00,
2013-02-02 21:32:00,27.0,7.0,-100.00,SSE,158,2.0,5.0,43,0.00,,,-99.99,,2013-02-03 02:32:00,
2013-02-02 21:42:00,27.0,7.0,-100.00,SSE,162,2.0,5.0,43,0.00,,,-99.99,,2013-02-03 02:42:00,
2013-02-02 21:52:00,27.0,7.0,-100.00,SSE,165,2.0,4.0,43,0.00,,,-99.99,,2013-02-03 02:52:00,
2013-02-02 22:02:00,27.0,7.0,-100.00,SSE,162,1.0,3.0,43,0.00,,,-99.99,,2013-02-03 03:02:00,
2013-02-02 22:11:00,27.0,7.0,-100.00,SSE,167,2.0,4.0,43,0.00,,,-99.99,,2013-02-03 03:11:00,
2013-02-02 22:21:00,27.0,8.0,-100.00,South,172,1.0,4.0,44,0.00,,,-99.99,,2013-02-03 03:21:00,
2013-02-02 22:32:00,27.0,8.0,-100.00,South,182,2.0,4.0,45,0.00,,,-99.99,,2013-02-03 03:32:00,
2013-02-02 22:42:00,27.0,8.0,-100.00,SSW,200,4.0,9.0,43,0.00,,,-99.99,,2013-02-03 03:42:00,
2013-02-02 22:51:00,27.0,8.0,-100.00,SSW,210,6.0,11.0,44,0.00,,,-99.99,,2013-02-03 03:51:00,
2013-02-02 23:01:00,27.0,8.0,-100.00,SW,230,3.0,7.0,45,0.00,,,-99.99,,2013-02-03 04:01:00,
2013-02-02 23:11:00,27.0,9.0,-100.00,SW,215,4.0,8.0,45,0.00,,,-99.99,,2013-02-03 04:11:00,
2013-02-02 23:21:00,27.0,9.0,-100.00,SW,223,4.0,11.0,46,0.00,,,-99.99,,2013-02-03 04:21:00,
2013-02-02 23:32:00,27.0,9.0,-100.00,SSW,210,6.0,11.0,46,0.00,,,-99.99,,2013-02-03 04:32:00,
2013-02-02 23:42:00,27.0,10.0,-100.00,SSW,209,6.0,11.0,48,0.00,,,-99.99,,2013-02-03 04:42:00,
2013-02-02 23:52:00,26.0,11.0,-100.00,WSW,237,6.0,9.0,52,0.00,,,-99.99,,2013-02-03 04:52:00,